Flight Track Log - Related Links

Times and Time Zones

All times are in EDT time to prevent confusion due to time zone crossing. See the EGF3269 flight status page for this flight to view local times or setup timezone preferences in your user account.

Time Position Orientation Groundspeed Altitude Reporting Facility
EDT Latitude Longitude Course Direction KTS MPH feet Rate Location/Type
Wed 05:57:39 PM 32.8833 -97.0333 77° East 162 186 1,100  Level Dallas / Fort Worth TRACON
Wed 05:58:09 PM 32.8667 -97.0333 180° South 171 197 2,000 2,133 Climbing Dallas / Fort Worth TRACON
Wed 05:59:09 PM 32.8167 -97.0333 180° South 208 239 4,300 1,857 Climbing Dallas / Fort Worth TRACON
Wed 06:00:00 PM 32.6833 -96.8735 90° East  Level FlightAware Approximate
Wed 06:00:15 PM 32.7333 -97.0333 180° South 263 303 5,900  Level Dallas / Fort Worth TRACON
Wed 06:01:00 PM 32.6891 -96.7529 77° East  Level FlightAware Approximate
Wed 06:01:09 PM 32.7000 -96.9667 121° Southeast 279 321 7,600  Level Dallas / Fort Worth TRACON
Wed 06:02:00 PM 32.7113 -96.6345 77° East  Level FlightAware Approximate
Wed 06:03:25 PM 32.7003 -96.7692 90° East 306 352 10,000  Level Fort Worth Center
Wed 06:04:25 PM 32.7183 -96.6456 80° East 337 388 11,800 1,650 Climbing Fort Worth Center
Wed 06:05:25 PM 32.7322 -96.5467 80° East 337 388 13,300 1,350 Climbing Fort Worth Center
Wed 06:06:25 PM 32.7481 -96.4253 81° East 332 382 14,500 900 Climbing Fort Worth Center
Wed 06:07:25 PM 32.7597 -96.3239 82° East 337 388 15,100 700 Climbing Fort Worth Center
Wed 06:08:25 PM 32.7378 -96.1933 101° East 352 405 15,900 750 Climbing Fort Worth Center
Wed 06:09:25 PM 32.7219 -96.0850 100° East 368 423 16,600 700 Climbing Fort Worth Center
Wed 06:10:25 PM 32.7017 -95.9544 100° East 373 429 17,300 750 Climbing Fort Worth Center
Wed 06:11:25 PM 32.6836 -95.8436 101° East 373 429 18,100 850 Climbing Fort Worth Center
Wed 06:12:25 PM 32.6633 -95.7106 100° East 373 429 19,000 800 Climbing Fort Worth Center
Wed 06:13:25 PM 32.6594 -95.5800 92° East 373 429 19,700 800 Climbing Fort Worth Center
Wed 06:14:25 PM 32.6719 -95.4539 83° East 373 429 20,600 800 Climbing Fort Worth Center
Wed 06:15:25 PM 32.6783 -95.3278 87° East 379 436 21,300 750 Climbing Fort Worth Center
Wed 06:16:25 PM 32.6844 -95.1944 87° East 390 449 22,100 700 Climbing Fort Worth Center
Wed 06:17:25 PM 32.6944 -95.0633 85° East 395 455 22,700 850 Climbing Fort Worth Center
Wed 06:18:25 PM 32.7025 -94.9322 86° East 395 455 23,800 1,050 Climbing Fort Worth Center
Wed 06:19:25 PM 32.7083 -94.8014 87° East 395 455 24,800 1,650 Climbing Fort Worth Center
Wed 06:20:25 PM 32.6867 -94.6786 102° East 385 443 27,100 2,600 Climbing Fort Worth Center
Wed 06:21:25 PM 32.6886 -94.5747 89° East 353 406 30,000 2,050 Climbing Fort Worth Center
Wed 06:22:25 PM 32.6883 -94.4736 90° East 325 374 31,200 950 Climbing Fort Worth Center
Wed 06:23:25 PM 32.6672 -94.3681 103° East 319 367 31,900 700 Climbing Fort Worth Center
Wed 06:24:25 PM 32.6311 -94.2608 112° Southeast 325 374 32,600 800 Climbing Fort Worth Center
Wed 06:25:25 PM 32.5969 -94.1461 109° East 342 394 33,500 950 Climbing Fort Worth Center
Wed 06:26:25 PM 32.5583 -94.0342 112° Southeast 357 411 34,500 1,000 Climbing Fort Worth Center
Wed 06:27:25 PM 32.5239 -93.9172 109° East 368 423 35,500 1,000 Climbing Fort Worth Center
Wed 06:28:25 PM 32.4894 -93.8078 110° East 368 423 36,500 750 Climbing Fort Worth Center
Wed 06:29:25 PM 32.4528 -93.6936 111° Southeast 368 423 37,000 250 Climbing Fort Worth Center
Wed 06:30:25 PM 32.4181 -93.5769 109° East 368 423 37,000  Level Fort Worth Center
Wed 06:31:25 PM 32.3767 -93.4556 112° Southeast 382 440 37,000  Level Fort Worth Center
Wed 06:32:23 PM 32.3447 -93.3447 109° East 411 473 37,000  Level Houston Center
Wed 06:33:26 PM 32.3014 -93.2142 111° Southeast 423 487 37,000  Level Houston Center
Wed 06:34:28 PM 32.2597 -93.0819 110° East 427 491 37,000  Level Houston Center
Wed 06:35:30 PM 32.2092 -92.9261 111° Southeast 423 487 37,000  Level Houston Center
Wed 06:36:32 PM 32.1672 -92.7989 111° Southeast 416 479 37,000  Level Houston Center
Wed 06:37:34 PM 32.1256 -92.6706 111° Southeast 417 480 37,000  Level Houston Center
Wed 06:38:36 PM 32.0831 -92.5422 111° Southeast 414 476 37,000  Level Houston Center
Wed 06:39:38 PM 32.0428 -92.4161 111° Southeast 411 473 37,000  Level Houston Center
Wed 06:40:40 PM 32.0006 -92.2919 112° Southeast 408 470 37,000  Level Houston Center
Wed 06:41:42 PM 31.9592 -92.1664 111° Southeast 410 472 37,000  Level Houston Center
Wed 06:42:44 PM 31.9092 -92.0164 111° Southeast 411 473 37,000  Level Houston Center
Wed 06:43:46 PM 31.8664 -91.8900 112° Southeast 413 475 37,000  Level Houston Center
Wed 06:44:48 PM 31.8236 -91.7619 111° Southeast 417 480 37,000  Level Houston Center
Wed 06:45:50 PM 31.7803 -91.6339 112° Southeast 420 483 37,000  Level Houston Center
Wed 06:46:52 PM 31.7361 -91.5044 112° Southeast 424 488 37,000  Level Houston Center
Wed 06:47:54 PM 31.6911 -91.3733 112° Southeast 429 494 37,000  Level Houston Center
Wed 06:48:56 PM 31.6472 -91.2419 111° Southeast 431 496 37,000  Level Houston Center
Wed 06:49:58 PM 31.5928 -91.0850 112° Southeast 433 498 37,000  Level Houston Center
Wed 06:51:00 PM 31.5536 -90.9736 112° Southeast 437 503 37,000  Level Houston Center
Wed 06:52:02 PM 31.4981 -90.8144 112° Southeast 439 505 37,000  Level Houston Center
Wed 06:53:04 PM 31.4522 -90.6814 112° Southeast 441 507 37,000  Level Houston Center
Wed 06:54:06 PM 31.4056 -90.5481 112° Southeast 442 509 37,000  Level Houston Center
Wed 06:55:08 PM 31.3600 -90.4156 112° Southeast 440 506 37,000  Level Houston Center
Wed 06:56:09 PM 31.3150 -90.2856 112° Southeast 433 498 37,000  Level Houston Center
Wed 06:57:11 PM 31.2831 -90.1547 106° East 421 484 37,000 -48 Level Houston Center
Wed 06:58:13 PM 31.2514 -89.9986 103° East 411 473 36,900 -726 Descending Houston Center
Wed 06:59:15 PM 31.2244 -89.8661 103° East 419 482 35,500 -919 Descending Houston Center
Wed 07:00:17 PM 31.1953 -89.7289 104° East 431 496 35,000 -242 Descending Houston Center
Wed 07:01:19 PM 31.1681 -89.5936 103° East 428 493 35,000 -48 Level Houston Center
Wed 07:02:21 PM 31.1403 -89.4586 103° East 428 493 34,900 -919 Descending Houston Center
Wed 07:03:23 PM 31.1111 -89.3222 104° East 432 497 33,100 -1,839 Descending Houston Center
Wed 07:04:25 PM 31.0803 -89.1792 104° East 450 518 31,100 -2,129 Descending Houston Center
Wed 07:05:27 PM 31.0442 -89.0103 104° East 448 516 28,700 -1,935 Descending Houston Center
Wed 07:06:29 PM 31.0125 -88.8703 105° East 446 513 27,100 -823 Descending Houston Center
Wed 07:07:31 PM 30.9811 -88.7294 105° East 449 517 27,000 -242 Descending Houston Center
Wed 07:08:33 PM 30.9522 -88.5892 103° East 443 510 26,600 -726 Descending Houston Center
Wed 07:09:35 PM 30.9211 -88.4492 104° East 445 512 25,500 -1,016 Descending Houston Center
Wed 07:10:37 PM 30.8892 -88.3044 104° East 459 528 24,500 -732 Descending Houston Center
Wed 07:11:38 PM 30.8539 -88.1464 105° East 447 514 24,000 -244 Descending Houston Center
Wed 07:12:40 PM 30.8242 -88.0081 104° East 447 514 24,000  Level Houston Center
Wed 07:13:42 PM 30.7944 -87.8689 104° East 446 513 24,000  Level Houston Center
Wed 07:14:44 PM 30.7656 -87.7278 103° East 451 519 24,000 -194 Level Houston Center
Wed 07:15:46 PM 30.7767 -87.5581 86° East 439 505 23,600 -871 Descending Houston Center
Wed 07:16:48 PM 30.8272 -87.4428 63° Northeast 407 468 22,200 -1,452 Descending Houston Center
Wed 07:17:50 PM 30.8861 -87.3289 59° Northeast 411 473 20,600 -1,735 Descending Houston Center
Wed 07:18:11 PM 30.9028 -87.2817 68° East 398 458 19,800 -2,148 Descending Jacksonville Center
Wed 07:19:11 PM 30.9047 -87.1608 89° East 385 443 17,700 -2,450 Descending Jacksonville Center
Wed 07:20:11 PM 30.9022 -87.0444 91° East 373 429 14,900 -1,900 Descending Jacksonville Center
Wed 07:22:11 PM 30.9050 -86.8267 89° East 337 388 12,000 -1,067 Descending Jacksonville Center
Wed 07:23:11 PM 30.9106 -86.7206 86° East 330 380 11,700 -650 Descending Jacksonville Center
Wed 07:24:11 PM 30.8650 -86.6389 123° Southeast 288 331 10,700 -1,300 Descending Jacksonville Center
Wed 07:25:11 PM 30.8014 -86.5928 148° Southeast 265 305 9,100 -1,900 Descending Jacksonville Center
Wed 07:26:11 PM 30.7358 -86.5517 152° Southeast 265 305 6,900 -2,200 Descending Jacksonville Center

Login

Don't have an account? Register now (free) for customized features, flight alerts, and more!